Skagit Regional, WA

8:41 AM PDT on May 05, 2015 (GMT -0700)
Skagit Regional | | Change Station
CLOSE
Current Station
Airport
Location: Burlington,
Elevation: 144 ft
Nearby Weather Stations

Elev 144 ft 48.47 °N, 122.42 °W | Updated 46 minutes ago

Mostly Cloudy
Mostly Cloudy
43 °F
Feels Like 39 °F
N
6
Wind Variable Wind from NE

Today
High -- | Low -- °F
--% Chance of Precip.
Yesterday
High -- | Low -- °F
Precip. -- in
5:43 AM 8:29 PM
Full, 98% visible
Pressure 30.00 in
Visibility 3.0 miles
Clouds Few 2600 ft
Mostly Cloudy 3800 ft
Windchill 39 °F
Dew Point 41 °F
Humidity 93%
Rainfall 0.41 in
Snow Depth Not available.
UV 1 out of 12
Pollen 4.40 out of 12
Air Quality Not available.
Flu Activity Sporadic
METAR KBVS 051455Z AUTO 04005KT 3SM BR FEW026 BKN038 06/05 A3000 RMK A01 P0010

More Conditions Fewer Conditions

Pressure 30.00 in
Visibility 3.0 miles
Clouds Few 2600 ft
Mostly Cloudy 3800 ft
Windchill 39 °F
Dew Point 41 °F
Humidity 93%
Rainfall 0.41 in
Snow Depth Not available.
UV 1 out of 12
Pollen 4.40 out of 12
Air Quality Not available.
Flu Activity Sporadic
METAR KBVS 051455Z AUTO 04005KT 3SM BR FEW026 BKN038 06/05 A3000 RMK A01 P0010

More Conditions Fewer Conditions

10-Day Weather Forecast

Almanac

Astronomy

May. 05, 2015 Rise Set
Actual Time
Civil Twilight
Nautical Twilight
Astronomical Twilight
Moon
Length of Visible Light
Length of Day
Tomorrow will be .
, % of the Moon is Illuminated

Today's Extremes

State Highs State Lows

Community

WunderPhotos

Upload Photos

1,818,922 photos uploaded!

WunderBlogs® & News

Nearby

Air Quality

  Air Quality AQ Index Pollutant
Not available.

Snow Depth

Station Depth Elevation

Earthquake Activity

City Distance Mag. Time & Date
Minimum magnitude displayed is 2.5.

Coastal Water Temperatures

Place Temperature

Stations

Nearby Weather Stations

Station Location Temp. Windchill Dew Point Humidity Wind Precip. Elev Updated Type